Time;durP1;ratioP1;P1;durP2;ratioP2;P2;SDS_P1;SDS_P2;PMS_P1;PMS_P2;Temp;Humidity;BMP_temperature;BMP_pressure;BME280_temperature;BME280_humidity;BME280_pressure;Samples;Min_cycle;Max_cycle;Signal;HPM_P1;HPM_P2
2023/06/26 00:02:57;;;;;;;10.50;4.07;;;;;;;16.24;85.84;101011.97;10494362;28;20407;-84
2023/06/26 00:08:00;;;;;;;7.13;4.28;;;;;;;16.20;86.35;101022.03;10491358;28;20036;-85
2023/06/26 00:13:03;;;;;;;6.05;3.95;;;;;;;16.14;86.77;101022.44;10493673;28;20530;-84
2023/06/26 00:18:05;;;;;;;6.95;3.72;;;;;;;16.11;87.07;101014.75;10489705;28;20130;-84
2023/06/26 00:23:07;;;;;;;6.68;3.03;;;;;;;16.06;87.60;101020.41;10508332;28;20033;-84
2023/06/26 00:28:10;;;;;;;7.85;3.83;;;;;;;16.06;87.94;101014.84;10466303;28;20050;-84
2023/06/26 00:33:13;;;;;;;6.60;4.53;;;;;;;16.04;88.38;101014.34;10483808;28;20044;-85
2023/06/26 00:38:17;;;;;;;8.07;4.13;;;;;;;15.98;88.28;101010.88;10504877;28;20040;-84
2023/06/26 00:43:19;;;;;;;6.53;4.32;;;;;;;15.98;88.18;101008.94;10489269;28;20423;-84
2023/06/26 00:48:21;;;;;;;5.85;2.95;;;;;;;15.95;87.57;100998.44;10456321;28;20045;-85
2023/06/26 00:53:23;;;;;;;9.55;4.40;;;;;;;16.04;87.75;101003.28;10508961;28;20040;-87
2023/06/26 00:58:26;;;;;;;5.75;4.07;;;;;;;16.09;87.79;101003.16;10492103;28;20506;-85
2023/06/26 01:03:28;;;;;;;6.25;4.50;;;;;;;16.15;87.70;101005.53;10492705;28;20048;-87
2023/06/26 01:08:34;;;;;;;7.72;5.00;;;;;;;16.18;87.07;101004.09;10445388;28;20396;-87
2023/06/26 01:13:36;;;;;;;4.93;4.22;;;;;;;16.20;86.66;100993.53;10469730;28;20043;-86
2023/06/26 01:18:45;;;;;;;7.72;5.30;;;;;;;16.22;86.69;100997.63;10474350;28;20048;-85
2023/06/26 01:24:10;;;;;;;6.75;3.85;;;;;;;16.29;86.19;100991.63;10490665;28;20123;-85
2023/06/26 01:29:13;;;;;;;7.82;4.60;;;;;;;16.38;85.90;100988.97;10465605;28;20052;-86
2023/06/26 01:34:17;;;;;;;5.75;4.22;;;;;;;16.43;85.93;100997.97;10503201;28;20036;-86
2023/06/26 01:39:20;;;;;;;6.35;4.68;;;;;;;16.45;86.09;100989.34;10489852;28;20040;-86
2023/06/26 01:44:27;;;;;;;6.80;4.80;;;;;;;16.54;85.91;100991.06;10501471;28;20052;-87
2023/06/26 01:49:48;;;;;;;8.83;5.07;;;;;;;16.59;85.85;100990.13;10472101;28;20051;-86
2023/06/26 01:55:05;;;;;;;6.88;5.15;;;;;;;16.74;84.75;100994.53;10469386;28;20569;-87
2023/06/26 02:00:11;;;;;;;7.43;5.72;;;;;;;16.98;84.23;100988.66;10502637;28;20518;-87
2023/06/26 02:05:16;;;;;;;9.32;6.18;;;;;;;17.25;83.18;100980.19;10474239;28;20029;-86
2023/06/26 02:10:18;;;;;;;7.20;4.95;;;;;;;17.48;81.79;100986.50;10498573;28;20048;-86
2023/06/26 02:15:21;;;;;;;7.43;4.97;;;;;;;17.59;79.80;100987.88;10499210;28;20037;-87
2023/06/26 02:20:23;;;;;;;10.20;5.57;;;;;;;17.63;79.42;100985.28;10509158;28;20562;-84
2023/06/26 02:25:46;;;;;;;5.82;4.85;;;;;;;17.86;77.06;100986.84;10525356;28;20037;-84
2023/06/26 02:30:51;;;;;;;11.95;5.80;;;;;;;18.13;75.12;100987.75;10489547;28;20488;-85
2023/06/26 02:35:53;;;;;;;6.78;5.45;;;;;;;18.48;74.32;100980.28;10480316;28;20047;-85
2023/06/26 02:40:56;;;;;;;10.93;5.35;;;;;;;18.77;72.87;100990.81;10479893;28;20040;-86
2023/06/26 02:45:58;;;;;;;8.07;5.22;;;;;;;18.95;70.78;100993.25;10476431;28;20052;-84
2023/06/26 02:51:00;;;;;;;7.57;5.05;;;;;;;19.20;69.27;100994.34;10498001;28;20039;-84
2023/06/26 02:56:05;;;;;;;7.72;5.43;;;;;;;19.43;68.72;100992.13;10464544;28;20028;-84
2023/06/26 03:01:08;;;;;;;9.13;5.50;;;;;;;19.61;67.12;100989.31;10460743;28;20044;-84
2023/06/26 03:06:10;;;;;;;7.05;4.72;;;;;;;19.86;66.69;100991.19;10478432;28;20377;-84
2023/06/26 03:11:12;;;;;;;8.75;5.65;;;;;;;20.25;65.71;100983.59;10482985;28;20071;-84
2023/06/26 03:16:15;;;;;;;8.10;5.05;;;;;;;20.52;65.04;100985.91;10512097;28;20036;-86
2023/06/26 03:21:17;;;;;;;6.40;5.30;;;;;;;20.64;64.69;100980.38;10496138;28;20051;-84
2023/06/26 03:26:20;;;;;;;6.75;4.38;;;;;;;20.87;63.72;100983.63;10476932;28;20044;-83
2023/06/26 03:31:24;;;;;;;6.65;5.18;;;;;;;21.23;62.93;100976.53;10490199;28;20052;-84
2023/06/26 03:36:27;;;;;;;7.32;5.43;;;;;;;21.57;61.78;100978.16;10495373;28;20040;-84
2023/06/26 03:41:29;;;;;;;6.72;4.93;;;;;;;21.75;60.67;100976.78;10449655;28;20044;-83
2023/06/26 03:46:32;;;;;;;7.30;5.18;;;;;;;21.48;61.31;100981.03;10461157;28;20033;-83
2023/06/26 03:51:34;;;;;;;8.10;6.18;;;;;;;21.18;62.04;100974.78;10489864;28;20051;-85
2023/06/26 03:56:36;;;;;;;6.78;5.55;;;;;;;21.23;62.24;100979.34;10529661;28;20045;-87
2023/06/26 04:01:41;;;;;;;7.00;5.68;;;;;;;21.63;61.53;100971.97;10476226;28;20047;-87
2023/06/26 04:06:43;;;;;;;6.82;5.40;;;;;;;22.00;60.15;100983.16;10506001;28;20044;-83
2023/06/26 04:11:45;;;;;;;6.35;5.03;;;;;;;22.56;57.61;100981.38;10475545;28;20040;-84
2023/06/26 04:16:47;;;;;;;7.55;5.13;;;;;;;22.71;57.08;100976.19;10473063;28;20415;-83
2023/06/26 04:21:50;;;;;;;6.95;5.38;;;;;;;23.08;56.80;100977.72;10510222;28;20508;-84
2023/06/26 04:26:52;;;;;;;7.43;5.75;;;;;;;23.44;55.09;100973.06;10490045;28;20044;-84
2023/06/26 04:31:58;;;;;;;8.05;4.97;;;;;;;23.40;54.98;100969.34;10486228;28;20036;-83
2023/06/26 04:37:00;;;;;;;7.68;5.28;;;;;;;23.59;55.06;100969.47;10509888;28;20040;-83
2023/06/26 04:42:02;;;;;;;7.82;5.53;;;;;;;23.93;54.37;100962.31;10505252;28;20045;-83
2023/06/26 04:47:05;;;;;;;9.30;4.72;;;;;;;24.37;52.79;100958.53;10506455;28;20515;-84
2023/06/26 04:52:07;;;;;;;6.18;4.57;;;;;;;24.60;51.43;100959.44;10479939;28;20055;-87
2023/06/26 04:57:09;;;;;;;7.60;5.30;;;;;;;24.80;51.39;100966.66;10526709;28;20039;-83
2023/06/26 05:02:14;;;;;;;6.22;4.70;;;;;;;25.15;49.34;100958.16;10503786;28;20035;-85
2023/06/26 05:07:16;;;;;;;7.13;5.25;;;;;;;25.41;49.10;100960.25;10482556;28;20040;-88
2023/06/26 05:12:19;;;;;;;5.43;3.33;;;;;;;25.88;47.57;100959.06;10447413;28;20395;-83
2023/06/26 05:17:21;;;;;;;5.80;3.83;;;;;;;25.66;47.42;100966.28;10465879;28;20550;-85
2023/06/26 05:22:23;;;;;;;4.97;4.05;;;;;;;26.10;46.60;100960.22;10486159;28;20036;-84
2023/06/26 05:27:26;;;;;;;5.45;3.83;;;;;;;26.26;46.33;100971.28;10503239;28;20514;-86
2023/06/26 05:32:29;;;;;;;4.60;2.80;;;;;;;25.92;45.78;100967.56;10493005;28;20040;-85
2023/06/26 05:37:31;;;;;;;6.15;3.90;;;;;;;26.26;45.75;100960.03;10505407;28;20044;-84
2023/06/26 05:42:34;;;;;;;5.15;4.30;;;;;;;26.47;44.95;100960.38;10489569;28;20044;-84
2023/06/26 05:47:40;;;;;;;3.70;2.92;;;;;;;26.13;45.54;100976.31;10487411;28;20041;-85
2023/06/26 05:52:52;;;;;;;8.02;3.63;;;;;;;26.50;44.96;100962.41;10478201;28;20052;-83
2023/06/26 05:57:54;;;;;;;3.75;3.30;;;;;;;26.64;45.65;100954.16;10475317;28;20028;-84
2023/06/26 06:03:01;;;;;;;3.72;3.35;;;;;;;26.79;44.44;100952.31;10476132;28;20051;-86
2023/06/26 06:08:12;;;;;;;4.23;3.00;;;;;;;26.49;44.17;100957.97;10497545;28;20044;-85
2023/06/26 06:13:35;;;;;;;3.70;3.33;;;;;;;26.44;44.34;100961.94;10495491;28;20064;-86
2023/06/26 06:18:37;;;;;;;4.75;3.08;;;;;;;26.93;44.32;100965.78;10492586;28;20051;-83
2023/06/26 06:23:39;;;;;;;5.20;3.20;;;;;;;27.11;43.76;100955.53;10492270;28;20044;-86
2023/06/26 06:28:41;;;;;;;3.67;3.00;;;;;;;27.33;42.70;100950.94;10492898;28;20040;-85
2023/06/26 06:33:43;;;;;;;3.28;2.85;;;;;;;26.92;44.12;100952.88;10492619;28;20047;-84
2023/06/26 06:38:46;;;;;;;4.38;3.20;;;;;;;27.79;41.94;100951.38;10508973;28;20040;-83
2023/06/26 06:43:48;;;;;;;4.28;3.40;;;;;;;27.75;41.57;100942.06;10509007;28;20059;-85
2023/06/26 06:48:50;;;;;;;5.00;3.40;;;;;;;27.64;41.07;100958.09;10461986;28;20487;-84
2023/06/26 06:53:52;;;;;;;3.83;3.25;;;;;;;26.73;43.64;100951.88;10470301;28;20396;-84
2023/06/26 06:58:54;;;;;;;4.47;3.42;;;;;;;27.19;42.49;100951.59;10512736;28;20040;-85
2023/06/26 07:03:57;;;;;;;6.03;3.75;;;;;;;28.04;41.25;100950.72;10478731;28;20051;-83
2023/06/26 07:08:59;;;;;;;3.95;3.15;;;;;;;27.50;41.51;100949.47;10496677;28;20491;-84
2023/06/26 07:14:03;;;;;;;5.10;3.08;;;;;;;27.57;41.24;100949.53;10463559;28;20487;-84
2023/06/26 07:19:05;;;;;;;3.42;3.13;;;;;;;27.62;41.51;100946.38;10482483;28;20495;-84
2023/06/26 07:24:08;;;;;;;4.15;3.58;;;;;;;28.22;39.81;100952.47;10498133;28;20044;-84
2023/06/26 07:29:10;;;;;;;4.25;3.17;;;;;;;28.21;39.41;100945.19;10514901;28;20491;-85
2023/06/26 07:34:12;;;;;;;3.80;2.97;;;;;;;27.34;41.06;100946.91;10514840;28;20040;-84
2023/06/26 07:39:14;;;;;;;4.60;3.28;;;;;;;26.17;42.70;100953.88;10496632;28;20048;-85
2023/06/26 07:44:17;;;;;;;5.63;3.33;;;;;;;27.36;41.67;100943.69;10475135;28;20052;-85
2023/06/26 07:49:19;;;;;;;4.43;3.85;;;;;;;26.96;41.80;100954.53;10497559;28;20041;-84
2023/06/26 07:54:21;;;;;;;4.03;3.30;;;;;;;26.78;41.86;100952.72;10497068;28;20041;-84
2023/06/26 07:59:25;;;;;;;5.03;3.70;;;;;;;25.75;44.10;100952.03;10471564;28;20052;-85
2023/06/26 08:04:29;;;;;;;4.93;3.30;;;;;;;26.77;42.30;100959.53;10508772;28;20044;-85
2023/06/26 08:09:32;;;;;;;5.45;3.10;;;;;;;27.56;41.09;100959.19;10439632;28;20052;-83
2023/06/26 08:14:34;;;;;;;4.20;2.90;;;;;;;27.43;41.91;100941.78;10519410;28;20028;-85
2023/06/26 08:19:36;;;;;;;4.07;3.20;;;;;;;28.06;40.01;100937.84;10513035;28;20047;-83
2023/06/26 08:24:38;;;;;;;3.88;3.10;;;;;;;28.57;39.43;100939.78;10495685;28;20321;-85
2023/06/26 08:29:40;;;;;;;3.60;3.20;;;;;;;29.30;37.40;100942.44;10512025;28;20041;-83
2023/06/26 08:34:43;;;;;;;3.75;3.13;;;;;;;29.61;37.83;100932.38;10495280;28;20048;-84
2023/06/26 08:39:45;;;;;;;6.03;3.22;;;;;;;29.31;37.52;100932.72;10495096;28;20229;-84
2023/06/26 08:44:47;;;;;;;3.67;2.88;;;;;;;28.39;37.54;100934.03;10494723;28;20075;-84
2023/06/26 08:50:10;;;;;;;3.80;3.08;;;;;;;27.73;39.24;100930.38;10466915;28;20036;-84
2023/06/26 08:55:15;;;;;;;3.90;2.58;;;;;;;28.40;38.93;100935.66;10487227;28;20052;-85
2023/06/26 09:00:17;;;;;;;4.30;3.58;;;;;;;28.21;39.20;100945.19;10476065;28;20498;-85
2023/06/26 09:05:20;;;;;;;4.82;3.33;;;;;;;28.62;38.63;100938.56;10493654;28;20043;-87
2023/06/26 09:10:22;;;;;;;4.15;3.30;;;;;;;28.43;40.03;100931.22;10524535;28;20036;-88
2023/06/26 09:15:24;;;;;;;4.53;3.30;;;;;;;28.16;39.52;100936.31;10483578;28;20048;-88
2023/06/26 09:20:28;;;;;;;6.40;2.53;;;;;;;28.88;38.41;100943.16;10461022;28;20048;-88
2023/06/26 09:25:30;;;;;;;7.93;3.47;;;;;;;27.88;38.95;100949.00;10461543;28;20040;-85
2023/06/26 09:30:33;;;;;;;4.15;3.13;;;;;;;26.62;40.92;100934.03;10455449;28;20051;-85
2023/06/26 09:35:35;;;;;;;5.13;3.97;;;;;;;26.17;43.11;100917.31;10518079;28;20040;-87
2023/06/26 09:40:38;;;;;;;5.50;3.72;;;;;;;25.25;44.88;100926.66;10449373;28;20060;-89
2023/06/26 09:45:41;;;;;;;3.40;2.83;;;;;;;25.13;45.42;100926.84;10460691;28;20056;-90
2023/06/26 09:50:43;;;;;;;4.85;3.28;;;;;;;24.98;45.83;100919.28;10462883;28;20048;-88
2023/06/26 09:55:46;;;;;;;6.15;3.83;;;;;;;24.51;46.76;100916.75;10467525;28;20037;-87
2023/06/26 10:00:49;;;;;;;4.43;3.60;;;;;;;24.06;47.59;100915.34;10445358;28;20085;-87
2023/06/26 10:05:52;;;;;;;6.20;4.18;;;;;;;23.84;48.96;100908.44;10458648;28;20535;-85
2023/06/26 10:10:55;;;;;;;6.80;4.68;;;;;;;23.89;48.21;100898.94;10472156;28;20059;-83
2023/06/26 10:16:01;;;;;;;5.20;3.58;;;;;;;23.69;48.94;100898.88;10475969;28;20135;-84
2023/06/26 10:21:04;;;;;;;4.72;3.78;;;;;;;23.84;48.79;100896.41;10487775;28;20051;-84
2023/06/26 10:26:07;;;;;;;5.82;4.40;;;;;;;23.95;48.14;100900.25;10512609;28;20040;-85
2023/06/26 10:31:09;;;;;;;5.03;3.40;;;;;;;23.78;48.18;100890.28;10487377;28;20032;-87
2023/06/26 10:36:17;;;;;;;7.50;3.75;;;;;;;23.92;48.45;100873.78;10476469;28;20048;-85
2023/06/26 10:41:24;;;;;;;7.22;4.50;;;;;;;24.15;47.67;100882.31;10480254;28;20040;-86
2023/06/26 10:46:29;;;;;;;4.18;3.42;;;;;;;24.19;48.46;100899.22;10506959;28;20419;-89
2023/06/26 10:51:43;;;;;;;4.72;3.45;;;;;;;23.87;47.91;100871.28;10443034;28;20044;-94
2023/06/26 10:56:57;;;;;;;4.55;3.70;;;;;;;23.63;48.88;100888.31;10449194;28;20102;-89
2023/06/26 11:02:01;;;;;;;4.47;3.20;;;;;;;23.95;48.93;100877.84;10437235;28;20048;-92
2023/06/26 11:07:18;;;;;;;3.80;3.35;;;;;;;23.87;49.08;100865.66;10481412;28;20040;-89
2023/06/26 11:12:42;;;;;;;3.92;3.40;;;;;;;23.74;48.26;100878.97;10460973;28;20072;-89
2023/06/26 11:17:44;;;;;;;4.35;2.80;;;;;;;23.75;47.77;100861.00;10479328;28;20130;-88
2023/06/26 11:22:52;;;;;;;5.32;3.65;;;;;;;23.83;48.26;100852.75;10454499;28;20048;-87
2023/06/26 11:27:55;;;;;;;6.60;3.28;;;;;;;23.79;48.91;100872.31;10456978;28;20045;-87
2023/06/26 11:33:10;;;;;;;4.18;2.80;;;;;;;23.54;49.83;100846.44;10461540;28;20048;-89
2023/06/26 11:38:12;;;;;;;4.18;2.75;;;;;;;23.52;50.28;100854.41;10473117;28;20526;-88
2023/06/26 11:43:15;;;;;;;5.60;3.55;;;;;;;23.54;49.78;100852.06;10457135;28;20048;-87
2023/06/26 11:48:18;;;;;;;4.40;3.63;;;;;;;23.58;49.53;100847.38;10475644;28;20055;-87
2023/06/26 11:53:20;;;;;;;8.45;3.17;;;;;;;23.69;48.79;100834.44;10458915;28;20037;-88
2023/06/26 11:58:22;;;;;;;4.80;3.63;;;;;;;23.71;48.92;100837.69;10493168;28;20051;-90
2023/06/26 12:03:32;;;;;;;4.60;4.00;;;;;;;23.56;49.41;100832.88;10490026;28;20439;-89
2023/06/26 12:08:35;;;;;;;4.60;3.30;;;;;;;23.56;49.29;100844.09;10456350;28;20045;-87
2023/06/26 12:13:37;;;;;;;4.65;3.28;;;;;;;23.34;47.70;100855.97;10476846;28;20530;-87
2023/06/26 12:18:40;;;;;;;3.55;2.47;;;;;;;23.11;48.89;100856.63;10463540;28;20040;-88
2023/06/26 12:23:42;;;;;;;4.90;3.22;;;;;;;23.07;49.62;100841.69;10473787;28;20049;-87
2023/06/26 12:28:45;;;;;;;4.60;3.47;;;;;;;23.22;49.02;100833.66;10477837;28;20041;-88
2023/06/26 12:33:49;;;;;;;3.78;2.85;;;;;;;23.22;49.54;100840.06;10483910;28;20036;-87
2023/06/26 12:38:54;;;;;;;5.25;3.05;;;;;;;23.22;49.35;100854.06;10465695;28;20047;-84
2023/06/26 12:43:57;;;;;;;4.80;3.42;;;;;;;23.27;50.61;100886.59;10453121;28;20144;-89
2023/06/26 12:48:59;;;;;;;7.53;3.53;;;;;;;22.42;55.18;100885.88;10466714;28;20053;-89
2023/06/26 12:54:02;;;;;;;8.93;3.53;;;;;;;21.69;60.47;100883.19;10467093;28;20040;-92
2023/06/26 12:59:04;;;;;;;4.70;3.38;;;;;;;20.80;63.44;100876.53;10457542;28;20047;-93
2023/06/26 13:04:08;;;;;;;4.07;2.95;;;;;;;20.25;66.44;100906.38;10447845;28;20044;-89
2023/06/26 13:09:10;;;;;;;6.18;3.67;;;;;;;19.61;70.25;101017.97;10438866;28;20420;-87
2023/06/26 13:14:12;;;;;;;7.63;4.03;;;;;;;18.34;76.89;101011.81;10468570;28;20047;-88
2023/06/26 13:19:14;;;;;;;5.00;3.03;;;;;;;17.60;81.45;100960.94;10472721;28;20036;-88
2023/06/26 13:24:17;;;;;;;3.85;2.78;;;;;;;17.40;83.72;100938.19;10473044;28;20048;-87
2023/06/26 13:29:19;;;;;;;4.43;2.30;;;;;;;17.11;81.35;100935.91;10502710;28;20041;-90
2023/06/26 13:34:23;;;;;;;3.78;2.17;;;;;;;17.08;81.67;100936.56;10467443;28;20044;-87
2023/06/26 13:39:25;;;;;;;7.25;2.90;;;;;;;16.94;83.75;100935.00;10447180;28;20416;-87
2023/06/26 13:44:27;;;;;;;6.57;3.45;;;;;;;16.91;84.76;100925.38;10478654;28;20531;-87
2023/06/26 13:49:29;;;;;;;5.93;3.78;;;;;;;16.92;84.50;100904.81;10466992;28;20048;-90
2023/06/26 13:54:31;;;;;;;5.97;3.50;;;;;;;16.94;84.41;100894.22;10450971;28;20507;-89
2023/06/26 13:59:36;;;;;;;4.47;3.38;;;;;;;16.90;85.02;100898.78;10457166;28;20036;-86
2023/06/26 14:04:38;;;;;;;7.18;3.80;;;;;;;16.99;85.95;100871.91;10489829;28;20411;-85
2023/06/26 14:09:40;;;;;;;9.18;4.10;;;;;;;17.05;85.69;100870.66;10484563;28;20044;-90
2023/06/26 14:14:43;;;;;;;6.22;3.50;;;;;;;17.05;85.44;100878.97;10489525;28;20036;-86
2023/06/26 14:19:46;;;;;;;7.15;4.10;;;;;;;17.28;84.96;100867.81;10505747;28;20052;-87
2023/06/26 14:24:48;;;;;;;4.43;3.38;;;;;;;17.47;83.19;100868.34;10493999;28;20040;-87
2023/06/26 14:29:51;;;;;;;6.18;3.67;;;;;;;17.65;82.11;100849.78;10454091;28;20048;-85
2023/06/26 14:34:53;;;;;;;6.70;4.47;;;;;;;17.82;81.33;100843.47;10463343;28;20041;-85
2023/06/26 14:39:55;;;;;;;5.10;3.97;;;;;;;17.92;81.16;100849.53;10460097;28;20408;-87
2023/06/26 14:44:57;;;;;;;7.95;4.45;;;;;;;18.17;81.45;100845.13;10469747;28;20462;-88
2023/06/26 14:50:00;;;;;;;6.60;3.55;;;;;;;18.15;82.35;100841.88;10434127;28;20045;-88
2023/06/26 14:55:02;;;;;;;6.28;4.07;;;;;;;18.17;83.87;100838.75;10450623;28;20408;-89
2023/06/26 15:00:06;;;;;;;8.73;4.85;;;;;;;18.11;82.36;100837.31;10474572;28;20563;-86
2023/06/26 15:05:08;;;;;;;8.85;4.70;;;;;;;18.46;80.97;100824.19;10478844;28;20041;-89
2023/06/26 15:10:10;;;;;;;13.25;5.05;;;;;;;18.66;79.78;100815.19;10473500;28;20131;-87
2023/06/26 15:15:13;;;;;;;11.70;5.45;;;;;;;18.81;77.88;100816.63;10473086;28;20044;-88
2023/06/26 15:20:15;;;;;;;9.75;5.60;;;;;;;18.95;77.84;100818.03;10428706;28;20042;-83
2023/06/26 15:25:17;;;;;;;11.07;5.20;;;;;;;18.99;77.37;100809.84;10486197;28;20420;-88
2023/06/26 15:30:19;;;;;;;7.60;4.55;;;;;;;18.99;76.69;100807.06;10461045;28;20044;-87
2023/06/26 15:35:22;;;;;;;9.55;5.30;;;;;;;19.11;76.24;100807.19;10450247;28;20488;-87
2023/06/26 15:40:24;;;;;;;9.07;5.03;;;;;;;19.03;77.75;100793.28;10462687;28;20043;-89
2023/06/26 15:45:51;;;;;;;10.05;4.97;;;;;;;18.93;76.38;100789.75;10482196;28;20045;-90
2023/06/26 15:50:54;;;;;;;8.10;4.60;;;;;;;19.01;75.65;100790.84;10455819;28;20488;-85
2023/06/26 15:55:56;;;;;;;6.07;4.50;;;;;;;19.07;75.98;100791.47;10496404;28;20056;-86
2023/06/26 16:01:01;;;;;;;7.05;4.55;;;;;;;19.12;76.32;100792.13;10485813;28;20053;-89
2023/06/26 16:06:05;;;;;;;7.60;4.72;;;;;;;18.98;77.04;100797.91;10422130;28;20052;-88
2023/06/26 16:11:07;;;;;;;7.70;4.28;;;;;;;18.94;76.87;100791.38;10470483;28;20040;-87
2023/06/26 16:16:10;;;;;;;11.18;5.38;;;;;;;19.00;78.00;100796.75;10425746;28;20404;-87
2023/06/26 16:21:15;;;;;;;6.68;4.18;;;;;;;19.11;75.50;100795.25;10466456;28;20044;-88
2023/06/26 16:26:17;;;;;;;11.20;5.40;;;;;;;19.54;74.08;100803.34;10476739;28;20033;-85
2023/06/26 16:31:20;;;;;;;9.55;4.88;;;;;;;19.53;74.22;100796.94;10435103;28;20044;-85
2023/06/26 16:36:22;;;;;;;9.55;4.97;;;;;;;19.55;74.12;100799.41;10427040;28;20039;-87
2023/06/26 16:41:25;;;;;;;6.40;4.47;;;;;;;19.60;73.59;100795.59;10481851;28;20048;-86
2023/06/26 16:46:27;;;;;;;10.43;5.18;;;;;;;19.80;73.39;100789.25;10478762;28;20086;-92
2023/06/26 16:51:29;;;;;;;6.05;4.25;;;;;;;19.93;73.04;100795.69;10451018;28;20047;-89
2023/06/26 16:56:32;;;;;;;9.75;5.72;;;;;;;20.05;72.27;100791.00;10469063;28;20041;-88
2023/06/26 17:01:34;;;;;;;7.68;4.55;;;;;;;20.17;71.72;100788.28;10449841;28;20045;-87
2023/06/26 17:06:36;;;;;;;8.10;5.70;;;;;;;20.29;70.76;100789.47;10491956;28;20048;-89
2023/06/26 17:11:41;;;;;;;8.95;5.25;;;;;;;20.31;70.45;100789.97;10494490;28;20455;-88
2023/06/26 17:16:43;;;;;;;9.60;6.05;;;;;;;20.38;70.04;100777.06;10474862;28;20040;-86
2023/06/26 17:21:47;;;;;;;12.75;6.00;;;;;;;20.43;69.61;100779.66;10460882;28;20049;-87
2023/06/26 17:26:49;;;;;;;10.02;6.00;;;;;;;20.49;69.13;100783.06;10478039;28;20032;-89
2023/06/26 17:31:51;;;;;;;7.43;4.93;;;;;;;20.54;69.06;100776.47;10460049;28;20044;-88
2023/06/26 17:36:54;;;;;;;6.15;4.68;;;;;;;20.54;68.71;100784.81;10463745;28;20119;-93
2023/06/26 17:41:56;;;;;;;9.57;4.32;;;;;;;20.55;68.38;100775.28;10475863;28;20484;-90
2023/06/26 17:46:58;;;;;;;9.15;4.90;;;;;;;20.62;68.51;100781.09;10451474;28;20036;-88
2023/06/26 17:52:04;;;;;;;7.00;4.53;;;;;;;20.73;67.22;100780.31;10456211;28;20044;-87
2023/06/26 17:57:07;;;;;;;8.18;4.00;;;;;;;20.80;67.27;100781.72;10489527;28;20399;-90
2023/06/26 18:02:10;;;;;;;8.85;4.75;;;;;;;20.82;67.77;100779.41;10472069;28;20036;-86
2023/06/26 18:07:12;;;;;;;8.27;4.65;;;;;;;20.76;67.85;100773.25;10453079;28;20037;-84
2023/06/26 18:12:17;;;;;;;7.25;5.47;;;;;;;20.71;66.83;100768.72;10507483;28;20056;-86
2023/06/26 18:17:19;;;;;;;6.50;4.13;;;;;;;20.67;67.10;100783.69;10479505;28;20037;-87
2023/06/26 18:22:21;;;;;;;10.07;5.07;;;;;;;20.61;67.69;100776.69;10487884;28;20375;-85
2023/06/26 18:27:24;;;;;;;7.47;4.50;;;;;;;20.62;66.78;100779.13;10487816;28;20040;-88
2023/06/26 18:32:26;;;;;;;7.22;4.55;;;;;;;20.62;66.49;100781.09;10463298;28;20412;-87
2023/06/26 18:37:28;;;;;;;6.80;5.00;;;;;;;20.55;66.14;100778.09;10440849;28;20033;-87
2023/06/26 18:42:32;;;;;;;8.13;5.20;;;;;;;20.57;69.67;100784.94;10495611;28;20056;-89
2023/06/26 18:47:34;;;;;;;9.20;5.40;;;;;;;20.43;71.71;100782.47;10477585;28;20036;-88
2023/06/26 18:52:37;;;;;;;10.32;6.07;;;;;;;20.43;72.38;100803.94;10478795;28;20040;-86
2023/06/26 18:57:40;;;;;;;12.35;6.32;;;;;;;20.25;72.84;100792.13;10488458;28;20044;-91
2023/06/26 19:02:45;;;;;;;8.90;5.80;;;;;;;20.10;73.76;100801.94;10460469;28;20059;-89
2023/06/26 19:07:48;;;;;;;12.75;6.32;;;;;;;19.98;73.89;100787.16;10448026;28;20044;-89
2023/06/26 19:12:51;;;;;;;10.43;6.40;;;;;;;19.88;74.84;100788.38;10478579;28;20037;-88
2023/06/26 19:17:53;;;;;;;12.00;6.30;;;;;;;19.83;74.69;100791.38;10473788;28;20024;-87
2023/06/26 19:22:55;;;;;;;11.13;6.53;;;;;;;19.81;75.40;100796.47;10443227;28;20487;-85
2023/06/26 19:27:58;;;;;;;12.45;6.35;;;;;;;19.79;75.49;100796.00;10498908;28;20364;-87
2023/06/26 19:33:03;;;;;;;11.70;6.95;;;;;;;19.72;76.22;100788.16;10476997;28;20036;-85
2023/06/26 19:38:07;;;;;;;13.23;7.03;;;;;;;19.72;75.95;100792.91;10478200;28;20033;-83
2023/06/26 19:43:10;;;;;;;11.85;6.90;;;;;;;19.64;76.21;100791.84;10456711;28;20547;-87
2023/06/26 19:48:12;;;;;;;12.52;6.60;;;;;;;19.54;76.40;100793.03;10434436;28;20393;-88
2023/06/26 19:53:14;;;;;;;12.73;7.40;;;;;;;19.56;76.40;100785.16;10462065;28;20047;-86
2023/06/26 19:58:16;;;;;;;14.18;6.93;;;;;;;19.52;75.85;100778.59;10476339;28;20061;-86
2023/06/26 20:03:19;;;;;;;11.80;7.00;;;;;;;19.42;75.99;100772.63;10446753;28;20060;-87
2023/06/26 20:08:21;;;;;;;15.38;6.75;;;;;;;19.34;76.61;100770.72;10456734;28;20052;-92
2023/06/26 20:13:24;;;;;;;10.35;6.40;;;;;;;19.31;77.01;100772.22;10440012;28;20040;-86
2023/06/26 20:18:26;;;;;;;10.45;6.15;;;;;;;19.26;77.33;100777.94;10463646;28;20503;-86
2023/06/26 20:23:28;;;;;;;14.48;7.10;;;;;;;19.21;77.03;100773.41;10483908;28;20040;-86
2023/06/26 20:28:31;;;;;;;11.68;6.50;;;;;;;19.13;76.88;100777.06;10480105;28;20045;-87
2023/06/26 20:33:33;;;;;;;15.07;7.65;;;;;;;19.00;77.35;100777.28;10492723;28;20047;-87
2023/06/26 20:38:35;;;;;;;11.38;7.03;;;;;;;18.83;77.65;100776.22;10444253;28;20044;-88
2023/06/26 20:43:38;;;;;;;15.02;6.50;;;;;;;18.68;77.50;100763.66;10495184;28;20047;-86
2023/06/26 20:48:41;;;;;;;11.13;6.65;;;;;;;18.67;77.92;100762.03;10500945;28;20095;-85
2023/06/26 20:53:43;;;;;;;11.45;6.22;;;;;;;18.72;77.64;100763.81;10465037;28;20067;-85
2023/06/26 20:58:45;;;;;;;9.52;6.38;;;;;;;18.59;77.61;100762.88;10462265;28;20041;-90
2023/06/26 21:03:49;;;;;;;8.60;5.95;;;;;;;18.47;77.59;100756.34;10494867;28;20052;-88
2023/06/26 21:08:52;;;;;;;9.48;5.82;;;;;;;18.46;77.96;100752.75;10487233;28;20028;-86
2023/06/26 21:13:54;;;;;;;10.27;5.53;;;;;;;18.49;77.19;100757.66;10511491;28;20522;-89
2023/06/26 21:18:56;;;;;;;9.95;5.22;;;;;;;18.36;76.28;100756.69;10459193;28;20036;-89
2023/06/26 21:23:59;;;;;;;7.30;5.72;;;;;;;18.29;76.42;100756.41;10468847;28;20047;-87
2023/06/26 21:29:02;;;;;;;7.15;5.20;;;;;;;18.29;76.16;100758.38;10473327;28;20041;-88
2023/06/26 21:34:05;;;;;;;7.72;5.20;;;;;;;18.27;75.49;100761.47;10489800;28;20028;-88
2023/06/26 21:39:07;;;;;;;7.88;4.45;;;;;;;18.16;75.37;100760.19;10470721;28;20041;-87
2023/06/26 21:44:09;;;;;;;7.78;5.03;;;;;;;18.10;75.70;100766.25;10488504;28;20056;-91
2023/06/26 21:49:12;;;;;;;9.25;4.95;;;;;;;18.05;75.92;100758.91;10476702;28;20044;-89
2023/06/26 21:54:14;;;;;;;8.50;5.20;;;;;;;18.00;76.39;100745.16;10457257;28;20047;-89
2023/06/26 21:59:16;;;;;;;8.57;4.63;;;;;;;18.02;75.95;100740.09;10468735;28;20032;-88
2023/06/26 22:04:18;;;;;;;8.90;5.55;;;;;;;18.00;76.23;100748.75;10468398;28;20056;-87
2023/06/26 22:09:21;;;;;;;6.22;4.32;;;;;;;17.87;76.08;100741.41;10490477;28;20045;-86
2023/06/26 22:14:23;;;;;;;7.28;4.97;;;;;;;17.93;76.59;100762.34;10473671;28;20384;-85
2023/06/26 22:19:25;;;;;;;8.27;4.90;;;;;;;17.90;76.59;100770.50;10480911;28;20044;-88
2023/06/26 22:24:27;;;;;;;7.93;5.10;;;;;;;17.82;76.61;100765.75;10506831;28;20489;-87
2023/06/26 22:29:29;;;;;;;9.82;5.60;;;;;;;17.75;77.08;100760.72;10483648;28;20048;-88
2023/06/26 22:34:31;;;;;;;10.05;5.97;;;;;;;17.68;77.33;100761.19;10472350;28;20045;-90
2023/06/26 22:39:34;;;;;;;9.07;5.63;;;;;;;17.63;77.52;100758.53;10494785;28;20087;-86
2023/06/26 22:44:36;;;;;;;7.88;5.43;;;;;;;17.61;77.84;100760.81;10498703;28;20052;-88
2023/06/26 22:49:38;;;;;;;9.88;5.90;;;;;;;17.62;77.95;100768.00;10480587;28;20055;-87
2023/06/26 22:54:41;;;;;;;9.32;5.75;;;;;;;17.62;78.42;100759.69;10462516;28;20547;-90
2023/06/26 22:59:43;;;;;;;9.57;6.65;;;;;;;17.65;78.59;100750.69;10510288;28;20025;-92
2023/06/26 23:04:45;;;;;;;12.18;6.05;;;;;;;17.78;78.66;100754.50;10495753;28;20043;-87
2023/06/26 23:09:48;;;;;;;8.60;5.63;;;;;;;17.72;78.14;100759.41;10462512;28;20036;-91
2023/06/26 23:14:50;;;;;;;11.52;6.40;;;;;;;17.55;78.25;100766.88;10496018;28;20067;-90